Time;durP1;ratioP1;P1;durP2;ratioP2;P2;SDS_P1;SDS_P2;PMS_P1;PMS_P2;Temp;Humidity;BMP_temperature;BMP_pressure;BME280_temperature;BME280_humidity;BME280_pressure;Samples;Min_cycle;Max_cycle;Signal;HPM_P1;HPM_P2
2023/09/05 00:00:19;;;;;;;;;;;19.60;73.80;;;;;;4996363;28;20396;-82
2023/09/05 00:02:48;;;;;;;;;;;19.70;73.60;;;;;;5012429;28;19914;-82
2023/09/05 00:05:13;;;;;;;;;;;19.70;73.60;;;;;;5011257;28;20004;-82
2023/09/05 00:07:40;;;;;;;;;;;19.70;73.60;;;;;;5012317;28;19999;-82
2023/09/05 00:10:07;;;;;;;;;;;19.70;73.60;;;;;;4996194;28;20404;-82
2023/09/05 00:12:33;;;;;;;;;;;19.70;73.60;;;;;;5012316;28;20258;-82
2023/09/05 00:14:59;;;;;;;;;;;19.70;73.50;;;;;;4996299;28;20012;-82
2023/09/05 00:17:24;;;;;;;;;;;19.80;73.50;;;;;;5012425;28;19917;-82
2023/09/05 00:19:51;;;;;;;;;;;19.70;73.50;;;;;;5030166;28;19951;-82
2023/09/05 00:22:17;;;;;;;;;;;19.70;73.50;;;;;;5012131;28;19955;-82
2023/09/05 00:24:44;;;;;;;;;;;19.70;73.70;;;;;;4995959;28;19920;-82
2023/09/05 00:27:10;;;;;;;;;;;19.70;73.70;;;;;;5012293;28;19920;-82
2023/09/05 00:29:36;;;;;;;;;;;19.80;73.60;;;;;;4996014;28;19924;-82
2023/09/05 00:32:03;;;;;;;;;;;19.80;73.50;;;;;;4995901;28;19913;-83
2023/09/05 00:34:36;;;;;;;;;;;19.80;73.50;;;;;;5012039;28;19909;-83
2023/09/05 00:37:05;;;;;;;;;;;19.80;73.50;;;;;;5029696;28;19962;-82
2023/09/05 00:39:31;;;;;;;;;;;19.80;73.40;;;;;;5011647;28;20352;-82
2023/09/05 00:41:57;;;;;;;;;;;19.80;73.50;;;;;;5011871;28;19959;-82
2023/09/05 00:44:23;;;;;;;;;;;19.80;73.40;;;;;;5029482;28;20350;-82
2023/09/05 00:46:49;;;;;;;;;;;19.80;73.50;;;;;;4995253;28;19913;-81
2023/09/05 00:49:16;;;;;;;;;;;19.70;73.40;;;;;;5011498;28;19925;-81
2023/09/05 00:51:43;;;;;;;;;;;19.70;73.50;;;;;;5011933;28;19913;-82
2023/09/05 00:54:09;;;;;;;;;;;19.70;73.60;;;;;;5029423;28;19954;-82
2023/09/05 00:56:35;;;;;;;;;;;19.60;73.60;;;;;;5011488;28;19929;-82
2023/09/05 00:59:01;;;;;;;;;;;19.60;73.70;;;;;;5011784;28;19921;-81
2023/09/05 01:01:28;;;;;;;;;;;19.60;73.70;;;;;;5011612;28;19913;-82
2023/09/05 01:03:57;;;;;;;;;;;19.60;73.60;;;;;;4995502;28;20544;-82
2023/09/05 01:06:32;;;;;;;;;;;19.60;73.50;;;;;;5011523;28;19995;-82
2023/09/05 01:09:12;;;;;;;;;;;19.60;73.50;;;;;;5011368;28;19955;-81
2023/09/05 01:11:38;;;;;;;;;;;19.70;73.50;;;;;;5011399;28;19963;-82
2023/09/05 01:14:04;;;;;;;;;;;19.60;73.40;;;;;;4994862;28;20019;-82
2023/09/05 01:16:30;;;;;;;;;;;19.60;73.40;;;;;;4994411;28;20007;-82
2023/09/05 01:18:56;;;;;;;;;;;19.60;73.50;;;;;;4995179;28;19914;-81
2023/09/05 01:21:24;;;;;;;;;;;19.60;73.50;;;;;;4997327;28;19913;-81
2023/09/05 01:23:57;;;;;;;;;;;19.60;73.50;;;;;;5012360;28;19952;-82
2023/09/05 01:26:24;;;;;;;;;;;19.60;73.50;;;;;;5029216;28;19909;-82
2023/09/05 01:28:52;;;;;;;;;;;19.50;73.40;;;;;;5011265;28;19936;-82
2023/09/05 01:31:18;;;;;;;;;;;19.50;73.60;;;;;;5010806;28;19920;-82
2023/09/05 01:33:43;;;;;;;;;;;19.40;73.60;;;;;;5011170;28;20366;-82
2023/09/05 01:36:09;;;;;;;;;;;19.40;73.70;;;;;;4994680;28;19965;-82
2023/09/05 01:38:34;;;;;;;;;;;19.30;73.70;;;;;;4994624;28;19925;-82
2023/09/05 01:41:00;;;;;;;;;;;19.40;73.80;;;;;;4994443;28;19917;-82
2023/09/05 01:43:26;;;;;;;;;;;19.30;73.80;;;;;;4994598;28;19945;-82
2023/09/05 01:45:51;;;;;;;;;;;19.30;73.70;;;;;;4994605;28;19917;-82
2023/09/05 01:48:17;;;;;;;;;;;19.40;73.70;;;;;;4994532;28;19959;-82
2023/09/05 01:50:42;;;;;;;;;;;19.40;73.60;;;;;;5011067;28;19913;-83
2023/09/05 01:53:08;;;;;;;;;;;19.30;73.60;;;;;;4994840;28;20343;-82
2023/09/05 01:55:33;;;;;;;;;;;19.30;73.70;;;;;;4994532;28;19928;-82
2023/09/05 01:57:59;;;;;;;;;;;19.30;73.70;;;;;;4994142;28;19914;-81
2023/09/05 02:00:24;;;;;;;;;;;19.20;73.60;;;;;;5010995;28;19996;-82
2023/09/05 02:02:50;;;;;;;;;;;19.20;73.70;;;;;;5011287;28;19950;-82
2023/09/05 02:05:16;;;;;;;;;;;19.20;73.70;;;;;;5011044;28;19999;-82
2023/09/05 02:07:41;;;;;;;;;;;19.20;73.70;;;;;;5010797;28;19925;-82
2023/09/05 02:10:07;;;;;;;;;;;19.20;73.60;;;;;;5010850;28;19913;-82
2023/09/05 02:12:33;;;;;;;;;;;19.20;73.60;;;;;;5011019;28;20273;-82
2023/09/05 02:15:00;;;;;;;;;;;19.20;73.50;;;;;;5010779;28;20368;-82
2023/09/05 02:17:30;;;;;;;;;;;19.20;73.60;;;;;;4994285;28;19913;-82
2023/09/05 02:19:56;;;;;;;;;;;19.20;73.60;;;;;;5011017;28;20004;-82
2023/09/05 02:22:22;;;;;;;;;;;19.10;73.60;;;;;;4994275;28;19991;-81
2023/09/05 02:24:47;;;;;;;;;;;19.10;73.80;;;;;;5010681;28;19921;-81
2023/09/05 02:27:13;;;;;;;;;;;19.10;73.80;;;;;;4994376;28;19913;-82
2023/09/05 02:29:38;;;;;;;;;;;19.10;73.70;;;;;;5013510;28;19917;-82
2023/09/05 02:32:04;;;;;;;;;;;19.10;73.60;;;;;;5014365;28;20369;-82
2023/09/05 02:34:30;;;;;;;;;;;19.10;73.70;;;;;;4998409;28;19941;-82
2023/09/05 02:36:55;;;;;;;;;;;19.10;73.70;;;;;;4998157;28;19913;-81
2023/09/05 02:39:21;;;;;;;;;;;19.10;73.60;;;;;;4997968;28;19919;-82
2023/09/05 02:41:47;;;;;;;;;;;19.20;73.70;;;;;;5032310;28;19909;-82
2023/09/05 02:44:12;;;;;;;;;;;19.20;73.60;;;;;;4998175;28;19920;-82
2023/09/05 02:46:39;;;;;;;;;;;19.20;73.60;;;;;;4998334;28;19913;-82
2023/09/05 02:49:04;;;;;;;;;;;19.10;73.60;;;;;;4998262;28;19917;-82
2023/09/05 02:51:30;;;;;;;;;;;19.10;73.60;;;;;;5032208;28;19917;-81
2023/09/05 02:53:59;;;;;;;;;;;19.10;73.70;;;;;;4997964;28;19914;-82
2023/09/05 02:56:24;;;;;;;;;;;19.10;73.70;;;;;;4998620;28;19917;-82
2023/09/05 02:58:50;;;;;;;;;;;19.10;73.70;;;;;;5016277;28;19920;-81
2023/09/05 03:01:16;;;;;;;;;;;19.10;74.30;;;;;;5017594;28;19959;-82
2023/09/05 03:03:42;;;;;;;;;;;19.10;73.90;;;;;;5014183;28;20357;-82
2023/09/05 03:06:09;;;;;;;;;;;19.10;73.80;;;;;;4997873;28;19913;-81
2023/09/05 03:08:36;;;;;;;;;;;19.10;73.70;;;;;;5014399;28;19951;-81
2023/09/05 03:11:02;;;;;;;;;;;19.10;73.70;;;;;;5014573;28;19924;-82
2023/09/05 03:13:28;;;;;;;;;;;19.10;73.70;;;;;;5013861;28;19925;-81
2023/09/05 03:15:53;;;;;;;;;;;19.20;73.70;;;;;;5013847;28;20322;-81
2023/09/05 03:18:19;;;;;;;;;;;19.10;73.60;;;;;;4997375;28;19924;-82
2023/09/05 03:20:46;;;;;;;;;;;19.10;73.70;;;;;;4997669;28;19971;-81
2023/09/05 03:23:11;;;;;;;;;;;19.10;73.70;;;;;;5013847;28;20392;-82
2023/09/05 03:25:37;;;;;;;;;;;19.00;73.80;;;;;;4997325;28;19913;-82
2023/09/05 03:28:03;;;;;;;;;;;19.00;73.80;;;;;;4997463;28;19917;-81
2023/09/05 03:30:28;;;;;;;;;;;18.90;73.80;;;;;;5013608;28;19917;-82
2023/09/05 03:32:54;;;;;;;;;;;18.90;73.90;;;;;;5013882;28;19925;-82
2023/09/05 03:35:20;;;;;;;;;;;18.90;73.90;;;;;;5013531;28;20334;-82
2023/09/05 03:37:46;;;;;;;;;;;18.90;73.90;;;;;;5013331;28;19948;-81
2023/09/05 03:40:12;;;;;;;;;;;18.90;73.90;;;;;;5012865;28;19972;-81
2023/09/05 03:42:38;;;;;;;;;;;18.90;73.90;;;;;;4997023;28;20391;-81
2023/09/05 03:45:04;;;;;;;;;;;18.80;73.80;;;;;;5013284;28;19913;-81
2023/09/05 03:47:29;;;;;;;;;;;18.90;73.80;;;;;;5013463;28;20355;-81
2023/09/05 03:49:55;;;;;;;;;;;18.80;73.70;;;;;;5013423;28;19935;-81
2023/09/05 03:52:20;;;;;;;;;;;18.90;73.70;;;;;;4996662;28;19956;-82
2023/09/05 03:54:46;;;;;;;;;;;18.80;73.60;;;;;;4996582;28;19959;-81
2023/09/05 03:57:12;;;;;;;;;;;18.80;73.70;;;;;;5013128;28;19917;-82
2023/09/05 03:59:38;;;;;;;;;;;18.80;73.80;;;;;;4996605;28;20020;-81
2023/09/05 04:02:03;;;;;;;;;;;18.70;73.80;;;;;;4996818;28;19914;-82
2023/09/05 04:04:29;;;;;;;;;;;18.70;73.90;;;;;;4997127;28;19918;-81
2023/09/05 04:06:54;;;;;;;;;;;18.70;73.80;;;;;;4996580;28;20243;-81
2023/09/05 04:09:20;;;;;;;;;;;18.80;73.80;;;;;;4996742;28;19913;-82
2023/09/05 04:11:45;;;;;;;;;;;18.80;73.70;;;;;;5013059;28;20266;-82
2023/09/05 04:14:11;;;;;;;;;;;18.80;73.70;;;;;;5012468;28;19933;-82
2023/09/05 04:16:36;;;;;;;;;;;18.80;73.60;;;;;;5030537;28;19913;-81
2023/09/05 04:19:02;;;;;;;;;;;18.80;73.60;;;;;;4996187;28;20405;-82
2023/09/05 04:21:28;;;;;;;;;;;18.70;73.50;;;;;;5012633;28;19913;-81
2023/09/05 04:23:53;;;;;;;;;;;18.70;73.50;;;;;;4996274;28;19948;-82
2023/09/05 04:26:21;;;;;;;;;;;18.70;73.60;;;;;;4996300;28;19922;-81
2023/09/05 04:28:47;;;;;;;;;;;18.60;73.70;;;;;;5030258;28;19909;-82
2023/09/05 04:31:18;;;;;;;;;;;18.60;73.70;;;;;;5030309;28;19960;-82
2023/09/05 04:33:43;;;;;;;;;;;18.60;73.60;;;;;;5012591;28;20392;-81
2023/09/05 04:36:09;;;;;;;;;;;18.60;73.50;;;;;;5030112;28;19909;-82
2023/09/05 04:38:35;;;;;;;;;;;18.60;73.50;;;;;;4998855;28;19925;-82
2023/09/05 04:41:01;;;;;;;;;;;18.60;73.40;;;;;;4997881;28;19913;-81
2023/09/05 04:43:27;;;;;;;;;;;18.60;73.50;;;;;;4996087;28;19921;-82
2023/09/05 04:45:54;;;;;;;;;;;18.50;73.40;;;;;;5029857;28;19960;-81
2023/09/05 04:48:19;;;;;;;;;;;18.50;73.40;;;;;;5012119;28;20277;-81
2023/09/05 04:50:45;;;;;;;;;;;18.40;73.50;;;;;;4995138;28;19921;-81
2023/09/05 04:53:10;;;;;;;;;;;18.40;73.70;;;;;;4995492;28;20138;-81
2023/09/05 04:55:36;;;;;;;;;;;18.30;73.70;;;;;;5012002;28;19909;-81
2023/09/05 04:58:01;;;;;;;;;;;18.30;73.80;;;;;;5012249;28;20071;-82
2023/09/05 05:00:31;;;;;;;;;;;18.20;73.90;;;;;;5012811;28;19917;-81
2023/09/05 05:02:57;;;;;;;;;;;18.20;73.90;;;;;;5012027;28;19963;-81
2023/09/05 05:05:23;;;;;;;;;;;18.20;73.90;;;;;;4995637;28;19917;-81
2023/09/05 05:07:48;;;;;;;;;;;18.30;73.90;;;;;;5012202;28;19913;-82
2023/09/05 05:10:14;;;;;;;;;;;18.30;73.80;;;;;;4995842;28;19956;-82
2023/09/05 05:12:40;;;;;;;;;;;18.20;73.70;;;;;;5011784;28;19960;-82
2023/09/05 05:15:06;;;;;;;;;;;18.20;73.70;;;;;;4995485;28;19917;-68
2023/09/05 05:17:32;;;;;;;;;;;18.20;73.80;;;;;;5028855;28;20028;-82
2023/09/05 05:19:57;;;;;;;;;;;18.20;73.80;;;;;;5011697;28;20012;-82
2023/09/05 05:22:23;;;;;;;;;;;18.20;73.90;;;;;;4995582;28;19960;-82
2023/09/05 05:24:49;;;;;;;;;;;18.20;73.80;;;;;;5011603;28;19913;-82
2023/09/05 05:27:14;;;;;;;;;;;18.20;73.80;;;;;;5030165;28;19921;-82
2023/09/05 05:29:40;;;;;;;;;;;18.20;73.70;;;;;;5010921;28;20375;-82
2023/09/05 05:32:05;;;;;;;;;;;18.20;73.70;;;;;;5011964;28;19913;-82
2023/09/05 05:34:31;;;;;;;;;;;18.20;73.70;;;;;;4995378;28;19944;-82
2023/09/05 05:36:57;;;;;;;;;;;18.20;73.70;;;;;;4995984;28;20361;-82
2023/09/05 05:39:24;;;;;;;;;;;18.20;73.80;;;;;;4995512;28;19913;-81
2023/09/05 05:41:49;;;;;;;;;;;18.10;73.80;;;;;;5010937;28;20012;-81
2023/09/05 05:44:15;;;;;;;;;;;18.10;73.80;;;;;;4994589;28;20343;-81
2023/09/05 05:46:41;;;;;;;;;;;18.20;73.80;;;;;;5011198;28;20366;-81
2023/09/05 05:49:08;;;;;;;;;;;18.20;73.80;;;;;;4994579;28;19963;-81
2023/09/05 05:51:34;;;;;;;;;;;18.10;73.80;;;;;;5010557;28;19925;-81
2023/09/05 05:53:59;;;;;;;;;;;18.20;73.90;;;;;;5029003;28;19913;-81
2023/09/05 05:56:25;;;;;;;;;;;18.20;73.90;;;;;;4995316;28;19963;-81
2023/09/05 05:58:50;;;;;;;;;;;18.20;73.80;;;;;;4995040;28;20262;-81
2023/09/05 06:01:18;;;;;;;;;;;18.20;73.70;;;;;;4995054;28;19913;-81
2023/09/05 06:03:43;;;;;;;;;;;18.30;73.80;;;;;;5014947;28;19916;-82
2023/09/05 06:06:09;;;;;;;;;;;18.30;73.80;;;;;;5014871;28;20358;-82
2023/09/05 06:08:35;;;;;;;;;;;18.30;73.70;;;;;;5015925;28;19917;-81
2023/09/05 06:11:00;;;;;;;;;;;18.30;73.80;;;;;;4998785;28;19917;-83
2023/09/05 06:13:26;;;;;;;;;;;18.30;73.90;;;;;;5014272;28;19921;-81
2023/09/05 06:15:52;;;;;;;;;;;18.30;74.00;;;;;;5017214;28;20151;-81
2023/09/05 06:18:18;;;;;;;;;;;18.30;73.90;;;;;;5002546;28;19953;-82
2023/09/05 06:20:43;;;;;;;;;;;18.40;74.00;;;;;;5014947;28;20011;-81
2023/09/05 06:23:09;;;;;;;;;;;18.40;74.00;;;;;;5014984;28;19984;-82
2023/09/05 06:25:35;;;;;;;;;;;18.50;74.10;;;;;;4998441;28;20028;-81
2023/09/05 06:28:01;;;;;;;;;;;18.50;74.00;;;;;;5015831;28;19913;-83
2023/09/05 06:30:26;;;;;;;;;;;18.60;74.00;;;;;;4999117;28;19924;-82
2023/09/05 06:32:52;;;;;;;;;;;18.60;74.00;;;;;;4998960;28;20281;-82
2023/09/05 06:35:17;;;;;;;;;;;18.70;73.90;;;;;;5015225;28;19913;-83
2023/09/05 06:37:43;;;;;;;;;;;18.80;73.80;;;;;;5014833;28;19953;-82
2023/09/05 06:40:12;;;;;;;;;;;18.90;74.30;;;;;;5015722;28;19936;-82
2023/09/05 06:42:42;;;;;;;;;;;18.90;73.80;;;;;;5034048;28;20370;-82
2023/09/05 06:45:08;;;;;;;;;;;19.00;73.80;;;;;;5035028;28;20273;-80
2023/09/05 06:47:33;;;;;;;;;;;19.10;73.70;;;;;;5000933;28;19913;-82
2023/09/05 06:49:59;;;;;;;;;;;19.30;73.80;;;;;;5024807;28;19939;-82
2023/09/05 06:52:25;;;;;;;;;;;19.30;73.70;;;;;;5020184;28;19913;-81
2023/09/05 06:54:51;;;;;;;;;;;19.40;73.70;;;;;;5019030;28;19909;-82
2023/09/05 06:57:17;;;;;;;;;;;19.50;73.70;;;;;;5015250;28;19909;-82
2023/09/05 06:59:43;;;;;;;;;;;19.60;73.70;;;;;;5015081;28;19948;-82
2023/09/05 07:02:09;;;;;;;;;;;19.60;73.70;;;;;;5024008;28;19910;-81
2023/09/05 07:04:36;;;;;;;;;;;19.60;73.80;;;;;;5004924;28;20366;-82
2023/09/05 07:07:03;;;;;;;;;;;19.70;73.80;;;;;;5020401;28;19952;-82
2023/09/05 07:09:29;;;;;;;;;;;19.80;73.80;;;;;;5038951;28;19916;-82
2023/09/05 07:11:54;;;;;;;;;;;19.80;73.70;;;;;;5019460;28;19945;-81
2023/09/05 07:14:20;;;;;;;;;;;20.00;73.80;;;;;;5031639;28;19930;-77
2023/09/05 07:16:45;;;;;;;;;;;20.10;73.70;;;;;;5013298;28;20288;-78
2023/09/05 07:19:11;;;;;;;;;;;20.20;73.70;;;;;;4997708;28;19914;-77
2023/09/05 07:21:40;;;;;;;;;;;20.30;73.70;;;;;;5012631;28;19913;-77
2023/09/05 07:24:10;;;;;;;;;;;20.50;73.70;;;;;;5012248;28;19920;-78
2023/09/05 07:26:35;;;;;;;;;;;20.70;73.60;;;;;;5012492;28;20275;-77
2023/09/05 07:29:01;;;;;;;;;;;20.80;73.50;;;;;;5012190;28;20008;-78
2023/09/05 07:31:31;;;;;;;;;;;20.90;73.60;;;;;;5012212;28;19983;-78
2023/09/05 07:33:57;;;;;;;;;;;21.00;73.70;;;;;;5029835;28;19999;-79
2023/09/05 07:36:23;;;;;;;;;;;21.10;73.60;;;;;;4995147;28;19928;-78
2023/09/05 07:38:48;;;;;;;;;;;21.20;73.70;;;;;;4995018;28;19913;-78
2023/09/05 07:41:14;;;;;;;;;;;21.30;73.60;;;;;;4995404;28;19917;-77
2023/09/05 07:43:39;;;;;;;;;;;21.50;73.70;;;;;;4995566;28;20008;-78
2023/09/05 07:46:05;;;;;;;;;;;21.70;74.00;;;;;;5012458;28;19955;-79
2023/09/05 07:48:31;;;;;;;;;;;22.20;74.30;;;;;;5030439;28;19970;-77
2023/09/05 07:51:03;;;;;;;;;;;22.70;74.20;;;;;;4995417;28;20364;-78
2023/09/05 07:53:33;;;;;;;;;;;23.30;74.30;;;;;;5011612;28;19955;-80
2023/09/05 07:55:59;;;;;;;;;;;23.90;74.10;;;;;;5014660;28;19920;-78
2023/09/05 07:58:27;;;;;;;;;;;24.40;74.00;;;;;;5011630;28;19917;-79
2023/09/05 08:00:53;;;;;;;;;;;24.60;73.80;;;;;;5028937;28;19921;-78
2023/09/05 08:03:19;;;;;;;;;;;24.70;73.50;;;;;;5028846;28;19909;-79
2023/09/05 08:05:45;;;;;;;;;;;24.90;74.30;;;;;;5011709;28;19924;-78
2023/09/05 08:08:11;;;;;;;;;;;25.10;74.30;;;;;;4994590;28;20366;-78
2023/09/05 08:10:37;;;;;;;;;;;25.30;74.30;;;;;;5028554;28;19917;-78
2023/09/05 08:13:03;;;;;;;;;;;25.50;74.70;;;;;;4994822;28;19921;-78
2023/09/05 08:15:28;;;;;;;;;;;25.90;75.00;;;;;;5011076;28;19924;-78
2023/09/05 08:17:54;;;;;;;;;;;26.60;75.20;;;;;;5011385;28;20323;-76
2023/09/05 08:20:21;;;;;;;;;;;27.30;75.30;;;;;;5012142;28;19920;-77
2023/09/05 08:22:47;;;;;;;;;;;28.30;75.40;;;;;;5011936;28;19913;-76
2023/09/05 08:25:15;;;;;;;;;;;28.90;74.70;;;;;;5010337;28;19913;-78
2023/09/05 08:27:44;;;;;;;;;;;29.20;75.00;;;;;;5035722;28;20289;-77
2023/09/05 08:30:11;;;;;;;;;;;29.60;75.20;;;;;;5011975;28;20011;-81
2023/09/05 08:32:38;;;;;;;;;;;30.00;75.70;;;;;;5029437;28;19920;-82
2023/09/05 08:35:05;;;;;;;;;;;30.60;75.90;;;;;;5029287;28;19945;-81
2023/09/05 08:37:30;;;;;;;;;;;31.30;75.80;;;;;;5023194;28;20309;-87
2023/09/05 08:39:56;;;;;;;;;;;31.90;75.80;;;;;;5036128;28;19994;-85
2023/09/05 08:42:23;;;;;;;;;;;32.30;75.70;;;;;;5011316;28;20373;-83
2023/09/05 08:44:49;;;;;;;;;;;32.50;75.80;;;;;;5026044;28;20388;-83
2023/09/05 08:47:14;;;;;;;;;;;32.80;76.10;;;;;;5028296;28;20351;-83
2023/09/05 08:49:40;;;;;;;;;;;33.10;76.10;;;;;;5028338;28;19921;-71
2023/09/05 08:52:06;;;;;;;;;;;33.40;76.10;;;;;;5034574;28;19920;-72
2023/09/05 08:54:32;;;;;;;;;;;33.70;76.20;;;;;;5028041;28;20373;-82
2023/09/05 08:56:58;;;;;;;;;;;33.90;76.20;;;;;;4995549;28;19913;-83
2023/09/05 08:59:27;;;;;;;;;;;33.60;75.70;;;;;;5045299;28;20338;-82
2023/09/05 09:01:53;;;;;;;;;;;32.90;75.30;;;;;;5029881;28;19913;-77
2023/09/05 09:04:20;;;;;;;;;;;31.90;75.30;;;;;;5029020;28;19943;-76
2023/09/05 09:06:52;;;;;;;;;;;30.80;75.60;;;;;;5029382;28;19963;-76
2023/09/05 09:09:31;;;;;;;;;;;29.70;76.00;;;;;;5029170;28;19909;-74
2023/09/05 09:12:00;;;;;;;;;;;28.70;76.20;;;;;;5025783;28;19921;-67
2023/09/05 09:14:26;;;;;;;;;;;28.00;76.90;;;;;;5026608;28;19927;-76
2023/09/05 09:16:51;;;;;;;;;;;27.50;76.90;;;;;;5006495;28;19913;-75
2023/09/05 09:19:17;;;;;;;;;;;27.10;76.90;;;;;;5011268;28;20342;-75
2023/09/05 09:21:43;;;;;;;;;;;26.70;77.00;;;;;;5032342;28;20418;-75
2023/09/05 09:24:09;;;;;;;;;;;26.40;77.00;;;;;;5028654;28;20054;-74
2023/09/05 09:26:36;;;;;;;;;;;26.30;76.70;;;;;;5029008;28;20287;-75
2023/09/05 09:29:06;;;;;;;;;;;26.20;77.00;;;;;;5028801;28;19913;-74
2023/09/05 09:31:32;;;;;;;;;;;26.10;76.10;;;;;;5028837;28;19936;-75
2023/09/05 09:33:58;;;;;;;;;;;26.10;75.90;;;;;;5028992;28;19909;-76
2023/09/05 09:36:31;;;;;;;;;;;26.00;75.90;;;;;;5020712;28;19913;-76
2023/09/05 09:38:57;;;;;;;;;;;26.10;76.30;;;;;;5010795;28;19920;-76
2023/09/05 09:41:22;;;;;;;;;;;27.00;78.10;;;;;;5010409;28;19913;-76
2023/09/05 09:43:53;;;;;;;;;;;28.70;78.50;;;;;;5036200;28;19964;-76
2023/09/05 09:46:19;;;;;;;;;;;30.50;77.70;;;;;;5027378;28;19909;-75
2023/09/05 09:48:45;;;;;;;;;;;31.70;76.90;;;;;;5009960;28;19922;-75
2023/09/05 09:51:12;;;;;;;;;;;32.60;76.90;;;;;;4993555;28;20016;-75
2023/09/05 09:53:39;;;;;;;;;;;33.50;76.60;;;;;;5010437;28;19936;-77
2023/09/05 09:56:12;;;;;;;;;;;33.70;76.10;;;;;;5010256;28;19923;-75
2023/09/05 09:58:42;;;;;;;;;;;33.80;76.80;;;;;;5008853;28;19911;-76
2023/09/05 10:01:11;;;;;;;;;;;34.30;77.50;;;;;;5025614;28;19988;-74
2023/09/05 10:03:41;;;;;;;;;;;35.00;77.10;;;;;;5023825;28;19964;-76
2023/09/05 10:06:08;;;;;;;;;;;35.40;76.80;;;;;;5021733;28;19936;-76
2023/09/05 10:08:34;;;;;;;;;;;35.80;76.60;;;;;;5019281;28;19909;-79
2023/09/05 10:10:59;;;;;;;;;;;36.00;76.80;;;;;;5029535;28;19921;-78
2023/09/05 10:13:27;;;;;;;;;;;36.20;76.90;;;;;;5028510;28;20374;-72
2023/09/05 10:15:56;;;;;;;;;;;36.50;76.80;;;;;;5009994;28;19909;-76
2023/09/05 10:18:22;;;;;;;;;;;36.70;76.80;;;;;;5010990;28;20265;-74
2023/09/05 10:20:49;;;;;;;;;;;36.60;76.50;;;;;;5028973;28;19928;-74
2023/09/05 10:23:17;;;;;;;;;;;35.90;76.50;;;;;;5011203;28;19921;-79
2023/09/05 10:25:44;;;;;;;;;;;35.30;77.20;;;;;;5028688;28;19953;-77
2023/09/05 10:28:09;;;;;;;;;;;35.00;78.10;;;;;;5010843;28;19913;-78
2023/09/05 10:30:40;;;;;;;;;;;34.90;77.90;;;;;;5011268;28;19962;-76
2023/09/05 10:33:07;;;;;;;;;;;34.20;77.40;;;;;;5011273;28;19951;-75
2023/09/05 10:35:33;;;;;;;;;;;33.30;77.70;;;;;;5029273;28;19909;-78
2023/09/05 10:37:59;;;;;;;;;;;32.80;78.30;;;;;;5029805;28;20376;-78
2023/09/05 10:40:35;;;;;;;;;;;32.30;78.10;;;;;;5033150;28;20376;-76
2023/09/05 10:43:04;;;;;;;;;;;31.90;78.10;;;;;;5030151;28;19998;-75
2023/09/05 10:45:31;;;;;;;;;;;31.40;78.30;;;;;;5031338;28;19920;-79
2023/09/05 10:48:01;;;;;;;;;;;30.90;78.40;;;;;;5029685;28;20421;-77
2023/09/05 10:50:27;;;;;;;;;;;30.60;78.20;;;;;;5018959;28;19952;-74
2023/09/05 10:53:10;;;;;;;;;;;30.60;78.90;;;;;;5016698;28;19960;-80
2023/09/05 10:55:43;;;;;;;;;;;30.50;78.70;;;;;;4994994;28;20025;-77
2023/09/05 10:58:29;;;;;;;;;;;30.50;78.90;;;;;;5011180;28;20254;-73
2023/09/05 11:00:55;;;;;;;;;;;30.90;79.90;;;;;;5003981;28;19975;-76
2023/09/05 11:03:20;;;;;;;;;;;31.90;80.10;;;;;;5025427;28;19917;-75
2023/09/05 11:05:46;;;;;;;;;;;33.00;79.80;;;;;;5031234;28;20388;-75
2023/09/05 11:08:21;;;;;;;;;;;33.80;79.10;;;;;;5031846;28;20373;-75
2023/09/05 11:10:47;;;;;;;;;;;34.00;77.80;;;;;;5029952;28;19913;-75
2023/09/05 11:13:14;;;;;;;;;;;33.90;77.90;;;;;;5031293;28;19921;-74
2023/09/05 11:15:43;;;;;;;;;;;34.20;78.70;;;;;;5010333;28;20354;-75
2023/09/05 11:18:11;;;;;;;;;;;34.80;79.10;;;;;;5012743;28;20275;-76
2023/09/05 11:20:44;;;;;;;;;;;35.60;78.80;;;;;;5012624;28;20342;-76
2023/09/05 11:23:11;;;;;;;;;;;35.60;77.70;;;;;;5030490;28;20314;-76
2023/09/05 11:25:46;;;;;;;;;;;34.90;76.70;;;;;;5040170;28;19913;-74
2023/09/05 11:28:15;;;;;;;;;;;34.00;76.70;;;;;;5030207;28;19909;-76
2023/09/05 11:30:44;;;;;;;;;;;33.10;76.60;;;;;;5030602;28;19964;-76
2023/09/05 11:33:13;;;;;;;;;;;32.00;76.90;;;;;;5030752;28;19913;-78
2023/09/05 11:35:46;;;;;;;;;;;31.20;77.40;;;;;;5030981;28;20439;-75
2023/09/05 11:38:18;;;;;;;;;;;30.70;78.30;;;;;;5030512;28;19909;-76
2023/09/05 11:41:05;;;;;;;;;;;30.60;78.70;;;;;;5030526;28;20027;-77
2023/09/05 11:43:33;;;;;;;;;;;30.60;78.00;;;;;;4994664;28;19920;-76
2023/09/05 11:45:59;;;;;;;;;;;30.20;77.70;;;;;;5030551;28;19949;-75
2023/09/05 11:48:33;;;;;;;;;;;30.10;78.00;;;;;;5030275;28;19934;-75
2023/09/05 11:50:59;;;;;;;;;;;30.30;78.20;;;;;;5030494;28;19914;-76
2023/09/05 11:53:25;;;;;;;;;;;30.30;78.00;;;;;;5031080;28;19924;-76
2023/09/05 11:55:50;;;;;;;;;;;30.60;79.00;;;;;;5030902;28;19959;-76
2023/09/05 11:58:18;;;;;;;;;;;31.40;79.60;;;;;;5031017;28;20000;-76
2023/09/05 12:00:45;;;;;;;;;;;31.90;78.60;;;;;;5030007;28;19920;-76
2023/09/05 12:03:15;;;;;;;;;;;31.40;77.80;;;;;;5029050;28;19947;-76
2023/09/05 12:05:41;;;;;;;;;;;30.80;77.70;;;;;;5029717;28;20276;-77
2023/09/05 12:08:07;;;;;;;;;;;30.20;77.70;;;;;;5022005;28;20067;-76
2023/09/05 12:10:40;;;;;;;;;;;29.80;77.60;;;;;;5029302;28;20004;-77
2023/09/05 12:13:06;;;;;;;;;;;29.20;77.60;;;;;;5027761;28;19921;-76
2023/09/05 12:15:36;;;;;;;;;;;28.70;77.90;;;;;;5029667;28;19963;-75
2023/09/05 12:18:05;;;;;;;;;;;28.80;78.80;;;;;;5029549;28;20346;-78
2023/09/05 12:20:31;;;;;;;;;;;29.50;79.50;;;;;;5046083;28;20317;-78
2023/09/05 12:22:57;;;;;;;;;;;30.30;79.50;;;;;;5030924;28;19913;-78
2023/09/05 12:25:24;;;;;;;;;;;30.90;79.30;;;;;;5030834;28;19917;-79
2023/09/05 12:27:50;;;;;;;;;;;31.60;79.00;;;;;;5013654;28;19917;-77
2023/09/05 12:30:27;;;;;;;;;;;31.90;78.70;;;;;;5030780;28;20016;-77
2023/09/05 12:32:53;;;;;;;;;;;32.10;79.00;;;;;;5030805;28;19913;-76
2023/09/05 12:35:19;;;;;;;;;;;32.30;78.60;;;;;;5031064;28;19917;-81
2023/09/05 12:37:45;;;;;;;;;;;32.50;79.00;;;;;;5029464;28;19917;-78
2023/09/05 12:40:10;;;;;;;;;;;32.90;78.60;;;;;;5031058;28;19963;-81
2023/09/05 12:42:36;;;;;;;;;;;33.20;78.40;;;;;;5046629;28;19940;-80
2023/09/05 12:45:02;;;;;;;;;;;33.20;78.20;;;;;;5031096;28;19913;-81
2023/09/05 12:47:28;;;;;;;;;;;32.90;77.70;;;;;;5030783;28;20071;-82
2023/09/05 12:49:54;;;;;;;;;;;32.60;77.70;;;;;;5031394;28;19917;-79
2023/09/05 12:52:21;;;;;;;;;;;31.80;77.00;;;;;;5045745;28;19932;-78
2023/09/05 12:54:48;;;;;;;;;;;30.90;77.20;;;;;;5030235;28;19913;-79
2023/09/05 12:57:14;;;;;;;;;;;30.40;78.50;;;;;;5045645;28;19913;-75
2023/09/05 12:59:41;;;;;;;;;;;30.10;78.40;;;;;;5030579;28;19962;-78
2023/09/05 13:02:06;;;;;;;;;;;29.80;78.40;;;;;;5045765;28;19922;-78
2023/09/05 13:04:32;;;;;;;;;;;29.50;77.80;;;;;;5012272;28;19913;-79
2023/09/05 13:06:58;;;;;;;;;;;29.10;77.50;;;;;;5045596;28;19998;-76
2023/09/05 13:09:24;;;;;;;;;;;28.70;77.60;;;;;;5045587;28;20050;-77
2023/09/05 13:11:50;;;;;;;;;;;28.60;78.00;;;;;;5029919;28;19921;-79
2023/09/05 13:14:17;;;;;;;;;;;28.80;78.80;;;;;;5045261;28;20305;-80
2023/09/05 13:16:42;;;;;;;;;;;29.30;78.70;;;;;;5029267;28;19939;-72
2023/09/05 13:19:09;;;;;;;;;;;29.60;78.20;;;;;;5030175;28;20004;-78
2023/09/05 13:21:35;;;;;;;;;;;29.90;78.60;;;;;;5028822;28;19940;-74
2023/09/05 13:24:01;;;;;;;;;;;30.30;78.20;;;;;;5029005;28;20010;-77
2023/09/05 13:26:26;;;;;;;;;;;30.40;77.60;;;;;;5044596;28;19914;-75
2023/09/05 13:28:52;;;;;;;;;;;30.30;77.00;;;;;;5036582;28;19917;-77
2023/09/05 13:31:17;;;;;;;;;;;30.20;77.00;;;;;;5030296;28;20409;-76
2023/09/05 13:33:43;;;;;;;;;;;30.40;77.40;;;;;;5030287;28;19944;-78
2023/09/05 13:36:08;;;;;;;;;;;30.60;77.10;;;;;;5037735;28;19917;-78
2023/09/05 13:38:36;;;;;;;;;;;30.60;76.80;;;;;;5030125;28;20771;-79
2023/09/05 13:41:04;;;;;;;;;;;30.50;76.30;;;;;;5034329;28;19917;-78
2023/09/05 13:43:31;;;;;;;;;;;30.00;76.00;;;;;;5029829;28;19913;-78
2023/09/05 13:45:56;;;;;;;;;;;29.50;75.60;;;;;;5030140;28;19917;-79
2023/09/05 13:48:22;;;;;;;;;;;29.20;75.70;;;;;;5029769;28;20397;-80
2023/09/05 13:50:47;;;;;;;;;;;28.80;75.60;;;;;;5012181;28;19924;-79
2023/09/05 13:53:17;;;;;;;;;;;28.50;75.70;;;;;;5012014;28;20398;-80
2023/09/05 13:55:42;;;;;;;;;;;28.10;75.70;;;;;;5029547;28;20003;-79
2023/09/05 13:58:09;;;;;;;;;;;27.80;75.80;;;;;;5029428;28;19995;-78
2023/09/05 14:00:34;;;;;;;;;;;27.60;75.80;;;;;;5029464;28;20381;-78
2023/09/05 14:03:00;;;;;;;;;;;27.50;75.60;;;;;;5029601;28;19918;-78
2023/09/05 14:05:25;;;;;;;;;;;27.50;75.70;;;;;;5028990;28;19913;-77
2023/09/05 14:07:51;;;;;;;;;;;27.50;75.60;;;;;;5029529;28;19913;-78
2023/09/05 14:10:16;;;;;;;;;;;27.40;75.20;;;;;;5029382;28;19987;-75
2023/09/05 14:12:42;;;;;;;;;;;27.40;74.90;;;;;;5032834;28;19929;-81